Terminal Aerodrome Forecast
Issued by NWS Sterling, VA

Current Version | Previous Version | Graphics & Text | Print | Product List | Glossary On
Versions: 1 2 3 4 5 6 7 8 9 10 11 12 13 14 15 16 17 18
000
FTUS41 KLWX 271559 AAA
TAFMRB
TAF AMD
KMRB 271559Z 2716/2812 22008KT 6SM -SHRA VCTS BKN050CB
      TEMPO 2716/2717 VRB25KT 2SM TSRA OVC015CB
     FM272000 VRB05KT P6SM SCT050 BKN200=

USA.gov is the U.S. government's official web portal to all federal, state and local government web resources and services.